Аэропорт
Ош (UCFO)

 UCFO / OSS
ЗЦ Центральная Азия
Ош (UCFO)
Ош (UCFO)
 40.60900, 72.79330  / 2927 ft

 UCFO 250730Z 02004MPS 360V060 9999 NSC 13/04 Q1020 R12/0///95 NOSIG
 TAF AMD UCFO 250103Z 2501/2524 32005MPS 1500 BR SCT030CB OVC100 TEMPO 2501/2506 16008G13MPS 0500 SHRA FG BKN002 OVC015CB TEMPO 2506/2512 09005MPS 3000 BR FU SCT050 BECMG 2512/2514 17005MPS
показать схемы



2020 © VATRUS division (Privacy Policy)